sensor_id;sensor_type;location;lat;lon;timestamp;P1;durP1;ratioP1;P2;durP2;ratioP2
13311;SDS011;34033;48.672;9.376;2023-12-14T00:00:23;0.50;;;0.50;;
13311;SDS011;34033;48.672;9.376;2023-12-14T00:02:48;1.40;;;0.73;;
13311;SDS011;34033;48.672;9.376;2023-12-14T00:05:14;0.43;;;0.43;;
13311;SDS011;34033;48.672;9.376;2023-12-14T00:07:39;1.27;;;0.70;;
13311;SDS011;34033;48.672;9.376;2023-12-14T00:10:04;0.37;;;0.37;;
13311;SDS011;34033;48.672;9.376;2023-12-14T00:12:30;0.73;;;0.60;;
13311;SDS011;34033;48.672;9.376;2023-12-14T00:14:56;0.50;;;0.50;;
13311;SDS011;34033;48.672;9.376;2023-12-14T00:17:21;0.57;;;0.57;;
13311;SDS011;34033;48.672;9.376;2023-12-14T00:19:47;0.70;;;0.70;;
13311;SDS011;34033;48.672;9.376;2023-12-14T00:22:12;0.50;;;0.50;;
13311;SDS011;34033;48.672;9.376;2023-12-14T00:24:37;0.67;;;0.47;;
13311;SDS011;34033;48.672;9.376;2023-12-14T00:27:03;0.40;;;0.40;;
13311;SDS011;34033;48.672;9.376;2023-12-14T00:29:28;0.40;;;0.40;;
13311;SDS011;34033;48.672;9.376;2023-12-14T00:31:54;0.50;;;0.50;;
13311;SDS011;34033;48.672;9.376;2023-12-14T00:34:19;0.47;;;0.47;;
13311;SDS011;34033;48.672;9.376;2023-12-14T00:36:44;0.50;;;0.50;;
13311;SDS011;34033;48.672;9.376;2023-12-14T00:39:10;0.63;;;0.63;;
13311;SDS011;34033;48.672;9.376;2023-12-14T00:41:35;0.33;;;0.33;;
13311;SDS011;34033;48.672;9.376;2023-12-14T00:44:00;0.40;;;0.40;;
13311;SDS011;34033;48.672;9.376;2023-12-14T00:46:26;0.47;;;0.43;;
13311;SDS011;34033;48.672;9.376;2023-12-14T00:48:51;0.50;;;0.50;;
13311;SDS011;34033;48.672;9.376;2023-12-14T00:51:16;0.50;;;0.50;;
13311;SDS011;34033;48.672;9.376;2023-12-14T00:53:41;0.80;;;0.80;;
13311;SDS011;34033;48.672;9.376;2023-12-14T00:56:07;0.77;;;0.77;;
13311;SDS011;34033;48.672;9.376;2023-12-14T00:58:33;0.50;;;0.50;;
13311;SDS011;34033;48.672;9.376;2023-12-14T01:00:59;1.07;;;0.57;;
13311;SDS011;34033;48.672;9.376;2023-12-14T01:03:24;0.63;;;0.63;;
13311;SDS011;34033;48.672;9.376;2023-12-14T01:05:49;0.60;;;0.53;;
13311;SDS011;34033;48.672;9.376;2023-12-14T01:08:14;0.47;;;0.47;;
13311;SDS011;34033;48.672;9.376;2023-12-14T01:10:40;0.50;;;0.50;;
13311;SDS011;34033;48.672;9.376;2023-12-14T01:13:05;0.87;;;0.80;;
13311;SDS011;34033;48.672;9.376;2023-12-14T01:15:30;0.50;;;0.50;;
13311;SDS011;34033;48.672;9.376;2023-12-14T01:17:56;0.50;;;0.50;;
13311;SDS011;34033;48.672;9.376;2023-12-14T01:20:21;1.23;;;0.50;;
13311;SDS011;34033;48.672;9.376;2023-12-14T01:22:46;0.40;;;0.40;;
13311;SDS011;34033;48.672;9.376;2023-12-14T01:25:12;0.77;;;0.77;;
13311;SDS011;34033;48.672;9.376;2023-12-14T01:27:37;0.80;;;0.80;;
13311;SDS011;34033;48.672;9.376;2023-12-14T01:30:02;0.40;;;0.40;;
13311;SDS011;34033;48.672;9.376;2023-12-14T01:32:28;0.67;;;0.67;;
13311;SDS011;34033;48.672;9.376;2023-12-14T01:34:53;1.73;;;1.03;;
13311;SDS011;34033;48.672;9.376;2023-12-14T01:37:18;0.60;;;0.60;;
13311;SDS011;34033;48.672;9.376;2023-12-14T01:39:44;1.10;;;1.03;;
13311;SDS011;34033;48.672;9.376;2023-12-14T01:42:09;0.77;;;0.73;;
13311;SDS011;34033;48.672;9.376;2023-12-14T01:44:35;0.90;;;0.90;;
13311;SDS011;34033;48.672;9.376;2023-12-14T01:47:00;0.50;;;0.50;;
13311;SDS011;34033;48.672;9.376;2023-12-14T01:49:25;0.57;;;0.57;;
13311;SDS011;34033;48.672;9.376;2023-12-14T01:51:51;0.50;;;0.50;;
13311;SDS011;34033;48.672;9.376;2023-12-14T01:54:16;0.70;;;0.70;;
13311;SDS011;34033;48.672;9.376;2023-12-14T01:56:41;0.53;;;0.53;;
13311;SDS011;34033;48.672;9.376;2023-12-14T01:59:07;0.90;;;0.90;;
13311;SDS011;34033;48.672;9.376;2023-12-14T02:04:06;0.70;;;0.70;;
13311;SDS011;34033;48.672;9.376;2023-12-14T02:06:32;0.60;;;0.60;;
13311;SDS011;34033;48.672;9.376;2023-12-14T02:08:57;0.57;;;0.50;;
13311;SDS011;34033;48.672;9.376;2023-12-14T02:11:23;0.50;;;0.50;;
13311;SDS011;34033;48.672;9.376;2023-12-14T02:13:48;0.57;;;0.57;;
13311;SDS011;34033;48.672;9.376;2023-12-14T02:16:13;0.70;;;0.70;;
13311;SDS011;34033;48.672;9.376;2023-12-14T02:18:40;1.43;;;0.60;;
13311;SDS011;34033;48.672;9.376;2023-12-14T02:21:05;0.70;;;0.63;;
13311;SDS011;34033;48.672;9.376;2023-12-14T02:23:31;0.87;;;0.87;;
13311;SDS011;34033;48.672;9.376;2023-12-14T02:25:56;0.50;;;0.50;;
13311;SDS011;34033;48.672;9.376;2023-12-14T02:28:21;1.07;;;0.97;;
13311;SDS011;34033;48.672;9.376;2023-12-14T02:30:46;0.60;;;0.60;;
13311;SDS011;34033;48.672;9.376;2023-12-14T02:33:12;0.60;;;0.60;;
13311;SDS011;34033;48.672;9.376;2023-12-14T02:35:37;0.60;;;0.60;;
13311;SDS011;34033;48.672;9.376;2023-12-14T02:38:02;0.60;;;0.60;;
13311;SDS011;34033;48.672;9.376;2023-12-14T02:40:28;0.60;;;0.60;;
13311;SDS011;34033;48.672;9.376;2023-12-14T02:42:54;0.60;;;0.60;;
13311;SDS011;34033;48.672;9.376;2023-12-14T02:45:19;0.60;;;0.60;;
13311;SDS011;34033;48.672;9.376;2023-12-14T02:47:44;0.60;;;0.60;;
13311;SDS011;34033;48.672;9.376;2023-12-14T02:50:12;0.50;;;0.50;;
13311;SDS011;34033;48.672;9.376;2023-12-14T02:52:37;0.93;;;0.70;;
13311;SDS011;34033;48.672;9.376;2023-12-14T02:55:02;0.67;;;0.67;;
13311;SDS011;34033;48.672;9.376;2023-12-14T02:57:28;0.77;;;0.77;;
13311;SDS011;34033;48.672;9.376;2023-12-14T02:59:53;0.70;;;0.70;;
13311;SDS011;34033;48.672;9.376;2023-12-14T03:02:19;0.67;;;0.67;;
13311;SDS011;34033;48.672;9.376;2023-12-14T03:04:44;0.53;;;0.53;;
13311;SDS011;34033;48.672;9.376;2023-12-14T03:07:09;0.60;;;0.60;;
13311;SDS011;34033;48.672;9.376;2023-12-14T03:09:35;0.63;;;0.63;;
13311;SDS011;34033;48.672;9.376;2023-12-14T03:12:00;0.63;;;0.63;;
13311;SDS011;34033;48.672;9.376;2023-12-14T03:14:31;0.53;;;0.53;;
13311;SDS011;34033;48.672;9.376;2023-12-14T03:16:57;0.70;;;0.70;;
13311;SDS011;34033;48.672;9.376;2023-12-14T03:19:22;0.70;;;0.70;;
13311;SDS011;34033;48.672;9.376;2023-12-14T03:21:47;0.67;;;0.63;;
13311;SDS011;34033;48.672;9.376;2023-12-14T03:24:13;0.60;;;0.50;;
13311;SDS011;34033;48.672;9.376;2023-12-14T03:26:38;0.90;;;0.90;;
13311;SDS011;34033;48.672;9.376;2023-12-14T03:29:04;0.60;;;0.60;;
13311;SDS011;34033;48.672;9.376;2023-12-14T03:31:29;0.70;;;0.70;;
13311;SDS011;34033;48.672;9.376;2023-12-14T03:33:54;0.70;;;0.70;;
13311;SDS011;34033;48.672;9.376;2023-12-14T03:36:19;0.80;;;0.80;;
13311;SDS011;34033;48.672;9.376;2023-12-14T03:38:47;0.80;;;0.80;;
13311;SDS011;34033;48.672;9.376;2023-12-14T03:41:12;0.80;;;0.80;;
13311;SDS011;34033;48.672;9.376;2023-12-14T03:43:38;0.77;;;0.77;;
13311;SDS011;34033;48.672;9.376;2023-12-14T03:46:03;0.80;;;0.80;;
13311;SDS011;34033;48.672;9.376;2023-12-14T03:48:31;0.60;;;0.60;;
13311;SDS011;34033;48.672;9.376;2023-12-14T03:50:56;0.80;;;0.80;;
13311;SDS011;34033;48.672;9.376;2023-12-14T03:53:21;0.83;;;0.83;;
13311;SDS011;34033;48.672;9.376;2023-12-14T03:55:47;0.83;;;0.83;;
13311;SDS011;34033;48.672;9.376;2023-12-14T03:58:12;0.70;;;0.70;;
13311;SDS011;34033;48.672;9.376;2023-12-14T04:00:37;0.60;;;0.60;;
13311;SDS011;34033;48.672;9.376;2023-12-14T04:03:02;2.40;;;1.30;;
13311;SDS011;34033;48.672;9.376;2023-12-14T04:05:28;1.00;;;0.90;;
13311;SDS011;34033;48.672;9.376;2023-12-14T04:07:53;0.97;;;0.97;;
13311;SDS011;34033;48.672;9.376;2023-12-14T04:10:18;1.20;;;0.97;;
13311;SDS011;34033;48.672;9.376;2023-12-14T04:12:44;1.10;;;1.00;;
13311;SDS011;34033;48.672;9.376;2023-12-14T04:15:09;2.50;;;0.90;;
13311;SDS011;34033;48.672;9.376;2023-12-14T04:17:35;0.93;;;0.93;;
13311;SDS011;34033;48.672;9.376;2023-12-14T04:20:00;1.33;;;1.30;;
13311;SDS011;34033;48.672;9.376;2023-12-14T04:22:27;1.37;;;1.27;;
13311;SDS011;34033;48.672;9.376;2023-12-14T04:24:53;1.00;;;1.00;;
13311;SDS011;34033;48.672;9.376;2023-12-14T04:27:19;1.10;;;1.10;;
13311;SDS011;34033;48.672;9.376;2023-12-14T04:29:44;1.00;;;1.00;;
13311;SDS011;34033;48.672;9.376;2023-12-14T04:32:10;1.23;;;1.20;;
13311;SDS011;34033;48.672;9.376;2023-12-14T04:34:35;0.80;;;0.80;;
13311;SDS011;34033;48.672;9.376;2023-12-14T04:37:00;1.27;;;1.27;;
13311;SDS011;34033;48.672;9.376;2023-12-14T04:39:26;0.83;;;0.83;;
13311;SDS011;34033;48.672;9.376;2023-12-14T04:41:52;1.43;;;1.30;;
13311;SDS011;34033;48.672;9.376;2023-12-14T04:44:18;0.90;;;0.90;;
13311;SDS011;34033;48.672;9.376;2023-12-14T04:46:44;1.10;;;1.10;;
13311;SDS011;34033;48.672;9.376;2023-12-14T04:49:09;1.33;;;1.23;;
13311;SDS011;34033;48.672;9.376;2023-12-14T04:51:35;1.20;;;1.20;;
13311;SDS011;34033;48.672;9.376;2023-12-14T04:54:00;1.10;;;1.10;;
13311;SDS011;34033;48.672;9.376;2023-12-14T04:56:25;1.50;;;1.30;;
13311;SDS011;34033;48.672;9.376;2023-12-14T04:58:51;1.37;;;1.27;;
13311;SDS011;34033;48.672;9.376;2023-12-14T05:01:16;1.33;;;1.23;;
13311;SDS011;34033;48.672;9.376;2023-12-14T05:03:41;0.90;;;0.90;;
13311;SDS011;34033;48.672;9.376;2023-12-14T05:06:07;1.23;;;1.20;;
13311;SDS011;34033;48.672;9.376;2023-12-14T05:08:32;1.33;;;1.23;;
13311;SDS011;34033;48.672;9.376;2023-12-14T05:10:58;1.53;;;1.17;;
13311;SDS011;34033;48.672;9.376;2023-12-14T05:13:24;1.10;;;1.10;;
13311;SDS011;34033;48.672;9.376;2023-12-14T05:15:49;1.17;;;1.17;;
13311;SDS011;34033;48.672;9.376;2023-12-14T05:18:14;1.00;;;1.00;;
13311;SDS011;34033;48.672;9.376;2023-12-14T05:20:40;1.67;;;1.53;;
13311;SDS011;34033;48.672;9.376;2023-12-14T05:23:05;1.63;;;1.53;;
13311;SDS011;34033;48.672;9.376;2023-12-14T05:25:30;1.60;;;1.50;;
13311;SDS011;34033;48.672;9.376;2023-12-14T05:27:56;1.20;;;1.10;;
13311;SDS011;34033;48.672;9.376;2023-12-14T05:30:21;2.53;;;1.40;;
13311;SDS011;34033;48.672;9.376;2023-12-14T05:32:46;1.40;;;1.30;;
13311;SDS011;34033;48.672;9.376;2023-12-14T05:35:11;1.50;;;1.40;;
13311;SDS011;34033;48.672;9.376;2023-12-14T05:37:38;1.10;;;1.10;;
13311;SDS011;34033;48.672;9.376;2023-12-14T05:40:04;1.30;;;1.20;;
13311;SDS011;34033;48.672;9.376;2023-12-14T05:42:30;1.43;;;1.33;;
13311;SDS011;34033;48.672;9.376;2023-12-14T05:44:55;1.00;;;1.00;;
13311;SDS011;34033;48.672;9.376;2023-12-14T05:47:20;2.00;;;1.30;;
13311;SDS011;34033;48.672;9.376;2023-12-14T05:49:46;1.00;;;1.00;;
13311;SDS011;34033;48.672;9.376;2023-12-14T05:52:11;1.00;;;1.00;;
13311;SDS011;34033;48.672;9.376;2023-12-14T05:54:37;1.10;;;1.10;;
13311;SDS011;34033;48.672;9.376;2023-12-14T05:57:02;1.30;;;1.20;;
13311;SDS011;34033;48.672;9.376;2023-12-14T05:59:28;1.13;;;1.13;;
13311;SDS011;34033;48.672;9.376;2023-12-14T06:01:57;1.17;;;1.17;;
13311;SDS011;34033;48.672;9.376;2023-12-14T06:04:23;1.47;;;1.37;;
13311;SDS011;34033;48.672;9.376;2023-12-14T06:06:49;1.23;;;1.20;;
13311;SDS011;34033;48.672;9.376;2023-12-14T06:09:14;1.40;;;1.30;;
13311;SDS011;34033;48.672;9.376;2023-12-14T06:11:39;1.40;;;1.30;;
13311;SDS011;34033;48.672;9.376;2023-12-14T06:14:04;2.73;;;1.30;;
13311;SDS011;34033;48.672;9.376;2023-12-14T06:16:30;1.97;;;1.50;;
13311;SDS011;34033;48.672;9.376;2023-12-14T06:18:55;1.60;;;1.50;;
13311;SDS011;34033;48.672;9.376;2023-12-14T06:21:20;1.40;;;1.30;;
13311;SDS011;34033;48.672;9.376;2023-12-14T06:23:46;1.50;;;1.40;;
13311;SDS011;34033;48.672;9.376;2023-12-14T06:26:11;2.20;;;1.53;;
13311;SDS011;34033;48.672;9.376;2023-12-14T06:28:36;1.13;;;1.13;;
13311;SDS011;34033;48.672;9.376;2023-12-14T06:31:02;1.33;;;1.23;;
13311;SDS011;34033;48.672;9.376;2023-12-14T06:33:27;1.23;;;1.23;;
13311;SDS011;34033;48.672;9.376;2023-12-14T06:35:52;1.60;;;1.50;;
13311;SDS011;34033;48.672;9.376;2023-12-14T06:38:18;1.97;;;1.60;;
13311;SDS011;34033;48.672;9.376;2023-12-14T06:40:43;1.80;;;1.63;;
13311;SDS011;34033;48.672;9.376;2023-12-14T06:43:09;4.07;;;1.60;;
13311;SDS011;34033;48.672;9.376;2023-12-14T06:45:36;1.60;;;1.50;;
13311;SDS011;34033;48.672;9.376;2023-12-14T06:48:02;1.60;;;1.50;;
13311;SDS011;34033;48.672;9.376;2023-12-14T06:50:28;1.23;;;1.23;;
13311;SDS011;34033;48.672;9.376;2023-12-14T06:52:53;1.57;;;1.47;;
13311;SDS011;34033;48.672;9.376;2023-12-14T06:55:18;1.50;;;1.40;;
13311;SDS011;34033;48.672;9.376;2023-12-14T06:57:44;1.77;;;1.63;;
13311;SDS011;34033;48.672;9.376;2023-12-14T07:00:12;1.67;;;1.57;;
13311;SDS011;34033;48.672;9.376;2023-12-14T07:02:38;1.40;;;1.30;;
13311;SDS011;34033;48.672;9.376;2023-12-14T07:05:04;3.27;;;2.03;;
13311;SDS011;34033;48.672;9.376;2023-12-14T07:07:29;1.63;;;1.50;;
13311;SDS011;34033;48.672;9.376;2023-12-14T07:09:55;2.40;;;2.20;;
13311;SDS011;34033;48.672;9.376;2023-12-14T07:12:20;2.03;;;1.93;;
13311;SDS011;34033;48.672;9.376;2023-12-14T07:14:45;1.77;;;1.43;;
13311;SDS011;34033;48.672;9.376;2023-12-14T07:17:11;1.97;;;1.73;;
13311;SDS011;34033;48.672;9.376;2023-12-14T07:19:36;1.57;;;1.50;;
13311;SDS011;34033;48.672;9.376;2023-12-14T07:22:01;2.90;;;1.30;;
13311;SDS011;34033;48.672;9.376;2023-12-14T07:24:27;1.20;;;1.10;;
13311;SDS011;34033;48.672;9.376;2023-12-14T07:26:52;2.50;;;1.77;;
13311;SDS011;34033;48.672;9.376;2023-12-14T07:29:17;2.57;;;1.70;;
13311;SDS011;34033;48.672;9.376;2023-12-14T07:31:43;1.60;;;1.50;;
13311;SDS011;34033;48.672;9.376;2023-12-14T07:34:08;1.63;;;1.53;;
13311;SDS011;34033;48.672;9.376;2023-12-14T07:36:33;1.77;;;1.67;;
13311;SDS011;34033;48.672;9.376;2023-12-14T07:38:59;1.53;;;1.43;;
13311;SDS011;34033;48.672;9.376;2023-12-14T07:41:26;1.80;;;1.70;;
13311;SDS011;34033;48.672;9.376;2023-12-14T07:43:54;1.73;;;1.63;;
13311;SDS011;34033;48.672;9.376;2023-12-14T07:46:20;1.77;;;1.67;;
13311;SDS011;34033;48.672;9.376;2023-12-14T07:48:45;1.33;;;1.30;;
13311;SDS011;34033;48.672;9.376;2023-12-14T07:51:11;1.67;;;1.57;;
13311;SDS011;34033;48.672;9.376;2023-12-14T07:53:36;1.60;;;1.50;;
13311;SDS011;34033;48.672;9.376;2023-12-14T07:56:02;3.90;;;1.80;;
13311;SDS011;34033;48.672;9.376;2023-12-14T07:58:27;1.50;;;1.40;;
13311;SDS011;34033;48.672;9.376;2023-12-14T08:00:53;1.20;;;1.20;;
13311;SDS011;34033;48.672;9.376;2023-12-14T08:03:18;1.40;;;1.40;;
13311;SDS011;34033;48.672;9.376;2023-12-14T08:05:43;2.27;;;1.60;;
13311;SDS011;34033;48.672;9.376;2023-12-14T08:08:09;1.70;;;1.60;;
13311;SDS011;34033;48.672;9.376;2023-12-14T08:10:34;2.40;;;1.53;;
13311;SDS011;34033;48.672;9.376;2023-12-14T08:13:00;1.50;;;1.40;;
13311;SDS011;34033;48.672;9.376;2023-12-14T08:15:25;1.47;;;1.37;;
13311;SDS011;34033;48.672;9.376;2023-12-14T08:17:50;2.10;;;1.90;;
13311;SDS011;34033;48.672;9.376;2023-12-14T08:20:16;1.40;;;1.30;;
13311;SDS011;34033;48.672;9.376;2023-12-14T08:22:41;1.60;;;1.50;;
13311;SDS011;34033;48.672;9.376;2023-12-14T08:25:10;1.67;;;1.50;;
13311;SDS011;34033;48.672;9.376;2023-12-14T08:27:42;1.70;;;1.53;;
13311;SDS011;34033;48.672;9.376;2023-12-14T08:30:11;1.97;;;1.50;;
13311;SDS011;34033;48.672;9.376;2023-12-14T08:32:37;1.50;;;1.40;;
13311;SDS011;34033;48.672;9.376;2023-12-14T08:35:02;1.80;;;1.70;;
13311;SDS011;34033;48.672;9.376;2023-12-14T08:37:28;1.37;;;1.27;;
13311;SDS011;34033;48.672;9.376;2023-12-14T08:39:53;1.43;;;1.33;;
13311;SDS011;34033;48.672;9.376;2023-12-14T08:42:18;2.03;;;1.83;;
13311;SDS011;34033;48.672;9.376;2023-12-14T08:44:44;5.27;;;3.83;;
13311;SDS011;34033;48.672;9.376;2023-12-14T08:47:09;2.23;;;2.07;;
13311;SDS011;34033;48.672;9.376;2023-12-14T08:49:35;2.00;;;1.90;;
13311;SDS011;34033;48.672;9.376;2023-12-14T08:52:00;2.20;;;2.03;;
13311;SDS011;34033;48.672;9.376;2023-12-14T08:54:26;1.93;;;1.73;;
13311;SDS011;34033;48.672;9.376;2023-12-14T08:56:52;2.20;;;2.00;;
13311;SDS011;34033;48.672;9.376;2023-12-14T08:59:17;2.10;;;1.90;;
13311;SDS011;34033;48.672;9.376;2023-12-14T09:01:45;2.03;;;1.83;;
13311;SDS011;34033;48.672;9.376;2023-12-14T09:04:10;2.43;;;2.23;;
13311;SDS011;34033;48.672;9.376;2023-12-14T09:06:35;2.40;;;1.60;;
13311;SDS011;34033;48.672;9.376;2023-12-14T09:09:01;2.10;;;1.90;;
13311;SDS011;34033;48.672;9.376;2023-12-14T09:11:27;2.00;;;1.90;;
13311;SDS011;34033;48.672;9.376;2023-12-14T09:13:53;1.73;;;1.63;;
13311;SDS011;34033;48.672;9.376;2023-12-14T09:16:18;1.83;;;1.73;;
13311;SDS011;34033;48.672;9.376;2023-12-14T09:18:43;2.10;;;1.87;;
13311;SDS011;34033;48.672;9.376;2023-12-14T09:21:09;2.60;;;2.20;;
13311;SDS011;34033;48.672;9.376;2023-12-14T09:23:34;2.67;;;2.17;;
13311;SDS011;34033;48.672;9.376;2023-12-14T09:25:59;3.87;;;3.20;;
13311;SDS011;34033;48.672;9.376;2023-12-14T09:28:25;3.87;;;3.10;;
13311;SDS011;34033;48.672;9.376;2023-12-14T09:30:51;3.40;;;2.60;;
13311;SDS011;34033;48.672;9.376;2023-12-14T09:33:17;2.43;;;2.23;;
13311;SDS011;34033;48.672;9.376;2023-12-14T09:35:43;2.90;;;2.47;;
13311;SDS011;34033;48.672;9.376;2023-12-14T09:38:08;2.47;;;2.27;;
13311;SDS011;34033;48.672;9.376;2023-12-14T09:40:34;3.80;;;2.50;;
13311;SDS011;34033;48.672;9.376;2023-12-14T09:42:59;2.13;;;1.97;;
13311;SDS011;34033;48.672;9.376;2023-12-14T09:45:29;2.33;;;1.73;;
13311;SDS011;34033;48.672;9.376;2023-12-14T09:47:58;2.10;;;1.90;;
13311;SDS011;34033;48.672;9.376;2023-12-14T09:50:25;1.93;;;1.73;;
13311;SDS011;34033;48.672;9.376;2023-12-14T09:52:50;1.80;;;1.70;;
13311;SDS011;34033;48.672;9.376;2023-12-14T09:55:16;1.63;;;1.53;;
13311;SDS011;34033;48.672;9.376;2023-12-14T09:57:41;1.63;;;1.53;;
13311;SDS011;34033;48.672;9.376;2023-12-14T10:00:07;1.30;;;1.20;;
13311;SDS011;34033;48.672;9.376;2023-12-14T10:02:36;2.33;;;1.93;;
13311;SDS011;34033;48.672;9.376;2023-12-14T10:05:02;1.90;;;1.80;;
13311;SDS011;34033;48.672;9.376;2023-12-14T10:07:28;1.43;;;1.33;;
13311;SDS011;34033;48.672;9.376;2023-12-14T10:09:55;1.60;;;1.50;;
13311;SDS011;34033;48.672;9.376;2023-12-14T10:12:58;2.13;;;1.53;;
13311;SDS011;34033;48.672;9.376;2023-12-14T10:15:24;1.57;;;1.47;;
13311;SDS011;34033;48.672;9.376;2023-12-14T10:17:54;1.70;;;1.60;;
13311;SDS011;34033;48.672;9.376;2023-12-14T10:20:20;2.80;;;1.90;;
13311;SDS011;34033;48.672;9.376;2023-12-14T10:22:49;3.43;;;1.50;;
13311;SDS011;34033;48.672;9.376;2023-12-14T10:25:15;2.00;;;1.80;;
13311;SDS011;34033;48.672;9.376;2023-12-14T10:27:40;2.13;;;1.97;;
13311;SDS011;34033;48.672;9.376;2023-12-14T10:30:08;1.90;;;1.60;;
13311;SDS011;34033;48.672;9.376;2023-12-14T10:32:37;1.70;;;1.60;;
13311;SDS011;34033;48.672;9.376;2023-12-14T10:35:02;1.70;;;1.60;;
13311;SDS011;34033;48.672;9.376;2023-12-14T10:37:28;1.60;;;1.50;;
13311;SDS011;34033;48.672;9.376;2023-12-14T10:39:54;4.20;;;1.60;;
13311;SDS011;34033;48.672;9.376;2023-12-14T10:42:21;1.63;;;1.53;;
13311;SDS011;34033;48.672;9.376;2023-12-14T10:44:52;2.53;;;1.23;;
13311;SDS011;34033;48.672;9.376;2023-12-14T10:47:19;1.70;;;1.60;;
13311;SDS011;34033;48.672;9.376;2023-12-14T10:49:45;1.37;;;1.30;;
13311;SDS011;34033;48.672;9.376;2023-12-14T10:52:14;1.80;;;1.50;;
13311;SDS011;34033;48.672;9.376;2023-12-14T10:54:40;2.27;;;1.60;;
13311;SDS011;34033;48.672;9.376;2023-12-14T10:57:07;1.50;;;1.40;;
13311;SDS011;34033;48.672;9.376;2023-12-14T10:59:33;2.33;;;1.53;;
13311;SDS011;34033;48.672;9.376;2023-12-14T11:02:00;1.50;;;1.40;;
13311;SDS011;34033;48.672;9.376;2023-12-14T11:04:53;2.20;;;1.73;;
13311;SDS011;34033;48.672;9.376;2023-12-14T11:07:52;1.30;;;1.20;;
13311;SDS011;34033;48.672;9.376;2023-12-14T11:10:21;1.10;;;1.10;;
13311;SDS011;34033;48.672;9.376;2023-12-14T11:13:02;1.53;;;1.40;;
13311;SDS011;34033;48.672;9.376;2023-12-14T11:15:33;1.63;;;1.27;;
13311;SDS011;34033;48.672;9.376;2023-12-14T11:20:50;1.33;;;1.30;;
13311;SDS011;34033;48.672;9.376;2023-12-14T11:23:26;4.43;;;1.40;;
13311;SDS011;34033;48.672;9.376;2023-12-14T11:26:05;1.60;;;1.50;;
13311;SDS011;34033;48.672;9.376;2023-12-14T11:28:34;1.60;;;1.50;;
13311;SDS011;34033;48.672;9.376;2023-12-14T11:31:01;1.60;;;1.50;;
13311;SDS011;34033;48.672;9.376;2023-12-14T11:33:31;1.47;;;1.40;;
13311;SDS011;34033;48.672;9.376;2023-12-14T11:36:01;1.77;;;1.67;;
13311;SDS011;34033;48.672;9.376;2023-12-14T11:38:28;2.23;;;1.73;;
13311;SDS011;34033;48.672;9.376;2023-12-14T11:40:54;1.90;;;1.60;;
13311;SDS011;34033;48.672;9.376;2023-12-14T11:43:20;1.50;;;1.37;;
13311;SDS011;34033;48.672;9.376;2023-12-14T11:45:46;1.93;;;1.50;;
13311;SDS011;34033;48.672;9.376;2023-12-14T11:48:12;2.20;;;2.00;;
13311;SDS011;34033;48.672;9.376;2023-12-14T11:50:39;3.37;;;1.70;;
13311;SDS011;34033;48.672;9.376;2023-12-14T11:53:06;1.60;;;1.50;;
13311;SDS011;34033;48.672;9.376;2023-12-14T11:55:33;2.47;;;2.13;;
13311;SDS011;34033;48.672;9.376;2023-12-14T11:57:59;1.63;;;1.43;;
13311;SDS011;34033;48.672;9.376;2023-12-14T12:00:28;2.30;;;2.10;;
13311;SDS011;34033;48.672;9.376;2023-12-14T12:03:16;1.67;;;1.57;;
13311;SDS011;34033;48.672;9.376;2023-12-14T12:05:42;1.77;;;1.67;;
13311;SDS011;34033;48.672;9.376;2023-12-14T12:08:09;1.87;;;1.77;;
13311;SDS011;34033;48.672;9.376;2023-12-14T12:10:36;1.70;;;1.60;;
13311;SDS011;34033;48.672;9.376;2023-12-14T12:13:03;1.60;;;1.50;;
13311;SDS011;34033;48.672;9.376;2023-12-14T12:15:33;1.60;;;1.50;;
13311;SDS011;34033;48.672;9.376;2023-12-14T12:18:10;1.50;;;1.40;;
13311;SDS011;34033;48.672;9.376;2023-12-14T12:20:37;2.10;;;1.60;;
13311;SDS011;34033;48.672;9.376;2023-12-14T12:23:03;2.00;;;1.57;;
13311;SDS011;34033;48.672;9.376;2023-12-14T12:25:29;2.10;;;1.70;;
13311;SDS011;34033;48.672;9.376;2023-12-14T12:27:58;2.20;;;2.00;;
13311;SDS011;34033;48.672;9.376;2023-12-14T12:30:24;2.17;;;1.70;;
13311;SDS011;34033;48.672;9.376;2023-12-14T12:32:50;1.90;;;1.80;;
13311;SDS011;34033;48.672;9.376;2023-12-14T12:35:20;2.20;;;2.00;;
13311;SDS011;34033;48.672;9.376;2023-12-14T12:37:46;2.70;;;2.43;;
13311;SDS011;34033;48.672;9.376;2023-12-14T12:40:12;2.10;;;2.00;;
13311;SDS011;34033;48.672;9.376;2023-12-14T12:42:40;3.23;;;2.00;;
13311;SDS011;34033;48.672;9.376;2023-12-14T12:45:05;2.17;;;1.97;;
13311;SDS011;34033;48.672;9.376;2023-12-14T12:47:31;1.97;;;1.87;;
13311;SDS011;34033;48.672;9.376;2023-12-14T12:49:56;2.03;;;1.77;;
13311;SDS011;34033;48.672;9.376;2023-12-14T12:52:22;1.60;;;1.50;;
13311;SDS011;34033;48.672;9.376;2023-12-14T12:54:47;1.80;;;1.70;;
13311;SDS011;34033;48.672;9.376;2023-12-14T12:57:13;1.40;;;1.30;;
13311;SDS011;34033;48.672;9.376;2023-12-14T12:59:38;1.20;;;1.10;;
13311;SDS011;34033;48.672;9.376;2023-12-14T13:02:04;1.20;;;0.87;;
13311;SDS011;34033;48.672;9.376;2023-12-14T13:04:29;0.90;;;0.90;;
13311;SDS011;34033;48.672;9.376;2023-12-14T13:06:55;1.50;;;1.40;;
13311;SDS011;34033;48.672;9.376;2023-12-14T13:09:21;0.70;;;0.70;;
13311;SDS011;34033;48.672;9.376;2023-12-14T13:11:47;0.70;;;0.70;;
13311;SDS011;34033;48.672;9.376;2023-12-14T13:14:13;0.90;;;0.90;;
13311;SDS011;34033;48.672;9.376;2023-12-14T13:16:39;0.80;;;0.80;;
13311;SDS011;34033;48.672;9.376;2023-12-14T13:19:05;0.60;;;0.60;;
13311;SDS011;34033;48.672;9.376;2023-12-14T13:21:32;0.60;;;0.60;;
13311;SDS011;34033;48.672;9.376;2023-12-14T13:24:01;0.83;;;0.60;;
13311;SDS011;34033;48.672;9.376;2023-12-14T13:26:27;3.50;;;0.80;;
13311;SDS011;34033;48.672;9.376;2023-12-14T13:28:52;0.60;;;0.60;;
13311;SDS011;34033;48.672;9.376;2023-12-14T13:31:18;0.60;;;0.60;;
13311;SDS011;34033;48.672;9.376;2023-12-14T13:33:44;0.60;;;0.60;;
13311;SDS011;34033;48.672;9.376;2023-12-14T13:36:11;0.73;;;0.73;;
13311;SDS011;34033;48.672;9.376;2023-12-14T13:38:37;1.10;;;0.60;;
13311;SDS011;34033;48.672;9.376;2023-12-14T13:41:02;0.60;;;0.60;;
13311;SDS011;34033;48.672;9.376;2023-12-14T13:43:28;0.60;;;0.60;;
13311;SDS011;34033;48.672;9.376;2023-12-14T13:45:54;1.13;;;1.03;;
13311;SDS011;34033;48.672;9.376;2023-12-14T13:48:23;1.33;;;1.20;;
13311;SDS011;34033;48.672;9.376;2023-12-14T13:50:51;0.60;;;0.60;;
13311;SDS011;34033;48.672;9.376;2023-12-14T13:53:17;0.30;;;0.30;;
13311;SDS011;34033;48.672;9.376;2023-12-14T13:55:42;0.60;;;0.60;;
13311;SDS011;34033;48.672;9.376;2023-12-14T13:58:08;0.40;;;0.40;;
13311;SDS011;34033;48.672;9.376;2023-12-14T14:00:33;1.57;;;0.50;;
13311;SDS011;34033;48.672;9.376;2023-12-14T14:02:59;0.40;;;0.40;;
13311;SDS011;34033;48.672;9.376;2023-12-14T14:05:25;0.97;;;0.57;;
13311;SDS011;34033;48.672;9.376;2023-12-14T14:07:51;0.93;;;0.53;;
13311;SDS011;34033;48.672;9.376;2023-12-14T14:10:17;0.77;;;0.77;;
13311;SDS011;34033;48.672;9.376;2023-12-14T14:12:43;0.30;;;0.30;;
13311;SDS011;34033;48.672;9.376;2023-12-14T14:15:09;0.30;;;0.30;;
13311;SDS011;34033;48.672;9.376;2023-12-14T14:17:35;0.50;;;0.50;;
13311;SDS011;34033;48.672;9.376;2023-12-14T14:20:00;0.50;;;0.50;;
13311;SDS011;34033;48.672;9.376;2023-12-14T14:22:26;0.53;;;0.53;;
13311;SDS011;34033;48.672;9.376;2023-12-14T14:24:51;0.60;;;0.60;;
13311;SDS011;34033;48.672;9.376;2023-12-14T14:27:16;0.60;;;0.60;;
13311;SDS011;34033;48.672;9.376;2023-12-14T14:29:42;0.57;;;0.57;;
13311;SDS011;34033;48.672;9.376;2023-12-14T14:32:07;0.50;;;0.50;;
13311;SDS011;34033;48.672;9.376;2023-12-14T14:34:32;0.60;;;0.60;;
13311;SDS011;34033;48.672;9.376;2023-12-14T14:36:58;1.50;;;0.90;;
13311;SDS011;34033;48.672;9.376;2023-12-14T14:39:23;1.17;;;0.77;;
13311;SDS011;34033;48.672;9.376;2023-12-14T14:41:48;1.27;;;1.00;;
13311;SDS011;34033;48.672;9.376;2023-12-14T14:44:14;5.70;;;0.83;;
13311;SDS011;34033;48.672;9.376;2023-12-14T14:46:39;1.50;;;0.93;;